Time;durP1;ratioP1;P1;durP2;ratioP2;P2;SDS_P1;SDS_P2;PMS_P1;PMS_P2;Temp;Humidity;BMP_temperature;BMP_pressure;BME280_temperature;BME280_humidity;BME280_pressure;Samples;Min_cycle;Max_cycle;Signal;HPM_P1;HPM_P2
2022/03/21 00:01:58;;;;;;;67.33;31.73;;;;;;;0.74;45.28;96438.41;5018060;28;20731;-80
2022/03/21 00:04:27;;;;;;;89.03;39.30;;;;;;;0.72;45.62;96435.97;5017046;28;20268;-80
2022/03/21 00:06:59;;;;;;;101.83;43.73;;;;;;;0.65;45.91;96429.66;5016528;28;20237;-79
2022/03/21 00:09:32;;;;;;;81.70;38.53;;;;;;;0.66;46.13;96422.81;5019320;28;20226;-79
2022/03/21 00:12:03;;;;;;;102.33;42.93;;;;;;;0.41;46.40;96404.16;5015397;28;20294;-79
2022/03/21 00:14:32;;;;;;;104.60;43.70;;;;;;;0.63;46.28;96433.25;5012698;28;20193;-79
2022/03/21 00:17:00;;;;;;;113.70;48.50;;;;;;;0.50;46.16;96416.25;5016108;28;20294;-78
2022/03/21 00:19:28;;;;;;;129.30;51.57;;;;;;;0.56;46.38;96420.94;5018031;28;20205;-79
2022/03/21 00:21:58;;;;;;;127.77;53.67;;;;;;;0.50;46.94;96429.03;5016839;28;20215;-78
2022/03/21 00:24:26;;;;;;;146.63;64.00;;;;;;;0.45;47.41;96422.63;5016170;28;20211;-77
2022/03/21 00:26:56;;;;;;;162.83;66.90;;;;;;;0.40;47.29;96423.00;5019648;28;20214;-78
2022/03/21 00:29:24;;;;;;;173.90;77.73;;;;;;;0.46;47.95;96419.97;5020902;28;20221;-77
2022/03/21 00:31:52;;;;;;;186.23;78.47;;;;;;;0.40;47.90;96417.88;5017152;28;20203;-78
2022/03/21 00:34:20;;;;;;;175.67;77.87;;;;;;;0.44;48.53;96418.44;5014808;28;20650;-78
2022/03/21 00:36:48;;;;;;;140.83;59.33;;;;;;;0.37;48.49;96410.44;5016570;28;20205;-77
2022/03/21 00:39:17;;;;;;;145.07;62.07;;;;;;;0.33;48.26;96405.63;5017078;28;20203;-78
2022/03/21 00:41:46;;;;;;;135.10;60.47;;;;;;;0.24;48.98;96419.06;5013973;28;20200;-78
2022/03/21 00:44:16;;;;;;;135.10;56.90;;;;;;;0.21;48.77;96411.63;5021705;28;20288;-78
2022/03/21 00:46:44;;;;;;;123.77;54.57;;;;;;;0.26;49.23;96412.13;5018306;28;20191;-79
2022/03/21 00:49:13;;;;;;;121.77;52.33;;;;;;;0.19;49.50;96410.94;5022342;28;20202;-79
2022/03/21 00:51:42;;;;;;;131.50;54.50;;;;;;;0.16;49.67;96404.31;5016504;28;20584;-78
2022/03/21 00:54:10;;;;;;;126.00;51.97;;;;;;;0.15;48.91;96399.28;5017992;28;20266;-78
2022/03/21 00:56:39;;;;;;;119.03;52.27;;;;;;;0.11;49.18;96395.34;5019836;28;20668;-78
2022/03/21 00:59:08;;;;;;;132.63;55.30;;;;;;;0.10;49.61;96401.38;5020185;28;20209;-78
2022/03/21 01:01:36;;;;;;;130.57;55.53;;;;;;;-0.03;49.89;96381.81;5015928;28;20208;-79
2022/03/21 01:04:03;;;;;;;118.87;51.60;;;;;;;0.01;50.19;96395.19;5014742;28;20211;-79
2022/03/21 01:06:32;;;;;;;121.37;53.13;;;;;;;0.06;50.11;96387.22;5017649;28;20210;-79
2022/03/21 01:09:00;;;;;;;120.53;49.70;;;;;;;0.09;49.87;96400.56;5019924;28;20292;-78
2022/03/21 01:11:28;;;;;;;117.20;48.03;;;;;;;-0.02;50.26;96375.78;5018390;28;20221;-78
2022/03/21 01:13:58;;;;;;;111.03;46.03;;;;;;;0.07;49.98;96370.94;5023536;28;20283;-79
2022/03/21 01:16:26;;;;;;;106.40;43.27;;;;;;;0.17;50.36;96379.56;5020715;28;20263;-78
2022/03/21 01:18:55;;;;;;;99.97;41.13;;;;;;;0.00;50.74;96358.59;5025167;28;20206;-79
2022/03/21 01:21:23;;;;;;;94.63;41.13;;;;;;;0.14;50.54;96379.78;5023242;28;20235;-79
2022/03/21 01:23:51;;;;;;;85.83;37.90;;;;;;;0.07;51.37;96378.59;5023599;28;20207;-78
2022/03/21 01:26:19;;;;;;;84.70;35.10;;;;;;;0.00;50.31;96381.59;5018943;28;20582;-79
2022/03/21 01:28:48;;;;;;;69.43;31.40;;;;;;;-0.08;50.68;96376.22;5021580;28;20649;-79
2022/03/21 01:31:19;;;;;;;69.53;29.93;;;;;;;-0.03;50.78;96371.59;5020495;28;20834;-78
2022/03/21 01:33:48;;;;;;;64.93;28.23;;;;;;;-0.03;50.61;96371.59;5021522;28;20209;-78
2022/03/21 01:36:16;;;;;;;51.10;24.70;;;;;;;0.02;50.17;96378.13;5025445;28;20295;-78
2022/03/21 01:38:43;;;;;;;54.07;24.03;;;;;;;-0.06;49.92;96364.16;5023286;28;20205;-78
2022/03/21 01:41:11;;;;;;;49.20;22.73;;;;;;;0.00;49.40;96368.03;5024290;28;20200;-79
2022/03/21 01:44:00;;;;;;;48.27;23.20;;;;;;;-0.01;49.47;96366.38;5017624;28;20612;-79
2022/03/21 01:46:30;;;;;;;52.13;23.60;;;;;;;0.02;48.90;96357.69;5019054;28;20604;-78
2022/03/21 01:48:58;;;;;;;55.10;25.27;;;;;;;-0.01;49.56;96351.88;5020842;28;20255;-78
2022/03/21 01:51:27;;;;;;;52.60;24.27;;;;;;;0.04;48.65;96351.53;5020930;28;20220;-79
2022/03/21 01:56:44;;;;;;;48.00;23.90;;;;;;;-0.14;49.41;96340.06;5022440;28;20753;-79
2022/03/21 01:59:16;;;;;;;51.03;24.37;;;;;;;-0.12;49.34;96356.13;5021727;28;20197;-78
2022/03/21 02:01:46;;;;;;;50.47;23.43;;;;;;;-0.19;49.14;96348.09;5015362;28;20551;-78
2022/03/21 02:04:15;;;;;;;53.77;23.93;;;;;;;-0.06;48.96;96346.25;5020771;28;20587;-78
2022/03/21 02:06:44;;;;;;;45.83;23.10;;;;;;;0.04;48.79;96353.25;5021080;28;20206;-79
2022/03/21 02:09:13;;;;;;;46.57;22.73;;;;;;;0.06;49.29;96356.53;5022958;28;20262;-79
2022/03/21 02:11:41;;;;;;;49.47;22.90;;;;;;;0.02;49.32;96345.72;5021035;28;20229;-78
2022/03/21 02:14:12;;;;;;;45.67;22.53;;;;;;;-0.04;49.33;96339.31;5014337;28;20207;-78
2022/03/21 02:16:41;;;;;;;53.83;24.73;;;;;;;-0.02;49.11;96354.53;5022886;28;20227;-77
2022/03/21 02:19:20;;;;;;;55.47;24.57;;;;;;;-0.13;49.38;96351.94;5017600;28;20253;-78
2022/03/21 02:21:53;;;;;;;53.07;25.03;;;;;;;-0.19;49.32;96353.19;5020718;28;20201;-78
2022/03/21 02:24:30;;;;;;;58.30;25.40;;;;;;;-0.21;49.34;96357.59;5020921;28;20668;-79
2022/03/21 02:27:01;;;;;;;60.10;26.10;;;;;;;-0.13;49.45;96365.53;5024755;28;20276;-79
2022/03/21 02:29:31;;;;;;;57.20;26.53;;;;;;;-0.18;49.73;96357.38;5020879;28;20201;-79
2022/03/21 02:31:59;;;;;;;56.50;26.93;;;;;;;-0.15;49.54;96357.16;5019937;28;20222;-80
2022/03/21 02:34:27;;;;;;;52.10;24.67;;;;;;;-0.17;48.96;96358.19;5017259;28;20206;-81
2022/03/21 02:36:59;;;;;;;54.10;25.03;;;;;;;-0.15;48.82;96369.94;5020154;28;20571;-80
2022/03/21 02:39:28;;;;;;;46.17;22.87;;;;;;;-0.12;48.93;96374.00;5021334;28;20342;-78
2022/03/21 02:41:56;;;;;;;40.17;20.80;;;;;;;-0.24;49.07;96364.66;5012706;28;20246;-80
2022/03/21 02:44:34;;;;;;;42.20;19.97;;;;;;;-0.19;49.20;96376.19;5020497;28;20198;-78
2022/03/21 02:47:03;;;;;;;40.47;20.10;;;;;;;-0.33;49.37;96375.53;5016916;28;20651;-78
2022/03/21 02:49:33;;;;;;;36.57;18.97;;;;;;;-0.32;49.57;96383.09;5021417;28;20217;-78
2022/03/21 02:52:04;;;;;;;36.97;18.50;;;;;;;-0.37;49.93;96376.66;5021919;28;20798;-79
2022/03/21 02:54:32;;;;;;;36.63;19.07;;;;;;;-0.38;49.43;96377.59;5025988;28;20199;-78
2022/03/21 02:57:03;;;;;;;36.90;19.03;;;;;;;-0.43;49.64;96374.56;5021143;28;20235;-79
2022/03/21 02:59:32;;;;;;;35.40;18.57;;;;;;;-0.48;49.92;96389.38;5017681;28;20191;-79
2022/03/21 03:01:59;;;;;;;40.20;19.93;;;;;;;-0.52;49.90;96386.25;5018956;28;21524;-78
2022/03/21 03:04:28;;;;;;;38.00;18.97;;;;;;;-0.50;50.02;96373.34;5017552;28;20207;-79
2022/03/21 03:06:57;;;;;;;41.60;18.67;;;;;;;-0.58;50.09;96381.56;5020496;28;20196;-79
2022/03/21 03:09:25;;;;;;;44.13;20.13;;;;;;;-0.52;49.94;96380.31;5020465;28;20198;-78
2022/03/21 03:11:53;;;;;;;39.97;20.57;;;;;;;-0.70;49.82;96372.22;5018513;28;20262;-78
2022/03/21 03:14:22;;;;;;;41.43;20.17;;;;;;;-0.72;50.66;96379.94;5022583;28;20551;-78
2022/03/21 03:16:51;;;;;;;42.73;22.00;;;;;;;-0.79;50.45;96377.94;5019630;28;20206;-78
2022/03/21 03:19:21;;;;;;;41.23;20.23;;;;;;;-0.88;50.99;96384.50;5013883;28;20238;-78
2022/03/21 03:21:51;;;;;;;37.80;19.07;;;;;;;-0.86;50.84;96379.28;5021180;28;20195;-79
2022/03/21 03:24:23;;;;;;;40.00;17.87;;;;;;;-0.93;50.50;96380.63;5021767;28;20199;-78
2022/03/21 03:26:51;;;;;;;39.97;18.10;;;;;;;-0.97;50.99;96374.09;5016385;28;20191;-79
2022/03/21 03:29:19;;;;;;;37.80;19.30;;;;;;;-0.95;50.73;96378.16;5017708;28;20211;-79
2022/03/21 03:31:48;;;;;;;36.73;18.27;;;;;;;-0.93;50.81;96378.09;5021593;28;20259;-81
2022/03/21 03:34:20;;;;;;;36.67;18.60;;;;;;;-0.97;51.07;96380.03;5023305;28;20332;-79
2022/03/21 03:36:48;;;;;;;35.00;18.43;;;;;;;-0.95;51.25;96372.28;5014073;28;20201;-79
2022/03/21 03:39:16;;;;;;;37.53;19.43;;;;;;;-0.95;50.69;96373.06;5018139;28;20203;-79
2022/03/21 03:41:46;;;;;;;41.47;20.20;;;;;;;-0.95;51.47;96372.28;5019497;28;20684;-79
2022/03/21 03:44:16;;;;;;;44.27;21.03;;;;;;;-0.99;51.81;96366.56;5017244;28;20199;-79
2022/03/21 03:46:44;;;;;;;49.00;22.63;;;;;;;-1.09;51.80;96368.09;5012876;28;20224;-79
2022/03/21 03:49:13;;;;;;;47.80;23.20;;;;;;;-1.12;52.03;96370.84;5019840;28;20278;-79
2022/03/21 03:51:43;;;;;;;46.23;21.50;;;;;;;-1.14;52.59;96372.69;5019674;28;20362;-79
2022/03/21 03:54:10;;;;;;;54.13;27.60;;;;;;;-1.23;52.82;96361.38;5017521;28;20288;-80
2022/03/21 03:56:38;;;;;;;65.17;30.57;;;;;;;-1.24;53.32;96369.94;5018799;28;20660;-79
2022/03/21 03:59:06;;;;;;;56.60;29.73;;;;;;;-1.23;53.10;96363.94;5020387;28;20211;-78
2022/03/21 04:01:34;;;;;;;78.83;35.93;;;;;;;-1.23;53.33;96363.94;5014978;28;20199;-78
2022/03/21 04:04:03;;;;;;;92.57;39.97;;;;;;;-1.11;52.88;96371.69;5014583;28;20201;-78
2022/03/21 04:06:31;;;;;;;63.47;32.40;;;;;;;-1.12;53.19;96363.19;5018407;28;20639;-78
2022/03/21 04:09:01;;;;;;;58.30;28.47;;;;;;;-1.10;53.08;96358.00;5018098;28;20210;-78
2022/03/21 04:11:29;;;;;;;64.07;32.10;;;;;;;-1.16;52.85;96361.78;5017765;28;20313;-78
2022/03/21 04:13:58;;;;;;;74.30;37.33;;;;;;;-1.24;53.58;96359.75;5018036;28;20207;-78
2022/03/21 04:16:26;;;;;;;88.33;40.77;;;;;;;-1.21;54.00;96354.44;5021578;28;20201;-78
2022/03/21 04:18:53;;;;;;;89.00;39.27;;;;;;;-1.30;53.85;96339.75;5015418;28;20282;-78
2022/03/21 04:21:22;;;;;;;77.80;40.50;;;;;;;-1.32;54.19;96351.00;5019508;28;20207;-78
2022/03/21 04:23:50;;;;;;;90.10;40.33;;;;;;;-1.28;53.92;96357.53;5017446;28;20195;-78
2022/03/21 04:26:20;;;;;;;90.77;38.07;;;;;;;-1.38;54.34;96352.22;5014241;28;20196;-78
2022/03/21 04:28:49;;;;;;;78.73;36.70;;;;;;;-1.39;54.42;96350.59;5018343;28;20285;-78
2022/03/21 04:31:17;;;;;;;80.93;37.60;;;;;;;-1.33;54.10;96354.47;5014782;28;20226;-78
2022/03/21 04:33:46;;;;;;;76.60;34.73;;;;;;;-1.38;54.07;96349.66;5017299;28;20283;-78
2022/03/21 04:36:14;;;;;;;72.03;33.47;;;;;;;-1.36;54.58;96355.50;5020276;28;20673;-78
2022/03/21 04:38:43;;;;;;;60.23;30.43;;;;;;;-1.33;54.73;96357.03;5018639;28;20641;-78
2022/03/21 04:41:11;;;;;;;56.17;28.23;;;;;;;-1.32;54.30;96353.53;5017436;28;20558;-79
2022/03/21 04:43:42;;;;;;;50.27;22.50;;;;;;;-1.32;54.41;96354.34;5020199;28;20208;-78
2022/03/21 04:46:10;;;;;;;46.07;20.23;;;;;;;-1.33;54.04;96354.47;5016987;28;20293;-79
2022/03/21 04:48:38;;;;;;;41.00;20.50;;;;;;;-1.31;54.16;96353.44;5019620;28;20234;-77
2022/03/21 04:51:06;;;;;;;46.87;20.77;;;;;;;-1.37;54.35;96351.31;5019193;28;20339;-78
2022/03/21 04:53:34;;;;;;;49.17;21.97;;;;;;;-1.37;54.28;96358.97;5021536;28;20203;-79
2022/03/21 04:56:03;;;;;;;39.63;19.83;;;;;;;-1.35;53.94;96359.66;5024297;28;20230;-79
2022/03/21 04:58:32;;;;;;;43.07;21.43;;;;;;;-1.38;54.19;96359.03;5022560;28;20210;-79
2022/03/21 05:01:01;;;;;;;44.87;21.97;;;;;;;-1.37;54.12;96358.97;5022971;28;20213;-79
2022/03/21 05:03:31;;;;;;;41.57;21.47;;;;;;;-1.31;54.10;96362.81;5019224;28;20274;-79
2022/03/21 05:05:59;;;;;;;44.13;21.27;;;;;;;-1.38;53.70;96351.41;5018916;28;20226;-79
2022/03/21 05:08:27;;;;;;;48.47;22.40;;;;;;;-1.35;54.13;96367.31;5019761;28;20204;-78
2022/03/21 05:10:56;;;;;;;43.73;22.47;;;;;;;-1.28;54.14;96367.72;5020880;28;20255;-80
2022/03/21 05:13:23;;;;;;;43.27;22.40;;;;;;;-1.23;54.08;96368.22;5022207;28;20207;-79
2022/03/21 05:15:51;;;;;;;49.87;23.30;;;;;;;-1.17;53.63;96373.72;5022499;28;20217;-78
2022/03/21 05:18:22;;;;;;;45.63;22.60;;;;;;;-1.17;53.85;96366.06;5019822;28;20206;-85
2022/03/21 05:20:50;;;;;;;44.07;22.67;;;;;;;-1.13;53.62;96376.06;5021332;28;20209;-84
2022/03/21 05:31:48;;;;;;;44.20;22.53;;;;;;;-1.13;53.94;96373.53;5020858;28;20256;-75
2022/03/21 05:37:03;;;;;;;51.50;22.10;;;;;;;-1.18;53.96;96358.50;5019648;28;20214;-73
2022/03/21 05:39:31;;;;;;;46.43;21.97;;;;;;;-1.13;54.22;96369.25;5023121;28;20201;-74
2022/03/21 05:41:59;;;;;;;55.90;22.97;;;;;;;-0.98;53.83;96378.38;5021619;28;20200;-75
2022/03/21 05:44:26;;;;;;;45.30;23.43;;;;;;;-0.91;53.33;96386.44;5024466;28;20225;-74
2022/03/21 05:46:54;;;;;;;43.43;23.03;;;;;;;-0.87;53.61;96380.22;5022015;28;20584;-74
2022/03/21 05:49:23;;;;;;;51.80;23.73;;;;;;;-0.86;53.46;96371.63;5022522;28;20234;-74
2022/03/21 05:51:51;;;;;;;48.53;23.57;;;;;;;-0.85;53.12;96376.63;5022100;28;20685;-74
2022/03/21 05:54:19;;;;;;;49.13;22.93;;;;;;;-0.83;53.58;96376.50;5024031;28;20203;-74
2022/03/21 05:56:47;;;;;;;49.57;23.33;;;;;;;-0.74;53.05;96383.53;5018256;28;20222;-74
2022/03/21 06:02:00;;;;;;;51.37;23.23;;;;;;;-0.66;52.89;96379.53;5021354;28;20693;-72
2022/03/21 06:04:29;;;;;;;60.37;25.43;;;;;;;-0.64;53.65;96382.81;5023359;28;20698;-73
2022/03/21 06:06:57;;;;;;;56.57;25.87;;;;;;;-0.52;53.60;96375.22;5020067;28;20199;-72
2022/03/21 06:09:27;;;;;;;63.53;24.93;;;;;;;-0.45;52.95;96372.09;5020488;28;20205;-75
2022/03/21 06:11:56;;;;;;;57.07;26.60;;;;;;;-0.33;53.09;96386.56;5025845;28;20263;-72
2022/03/21 06:14:24;;;;;;;55.20;26.43;;;;;;;-0.27;53.55;96381.03;5021241;28;20707;-71
2022/03/21 06:16:51;;;;;;;47.80;24.57;;;;;;;-0.17;52.43;96381.16;5021312;28;20231;-72
2022/03/21 06:19:19;;;;;;;54.20;23.87;;;;;;;-0.10;52.45;96377.25;5020386;28;20200;-72
2022/03/21 06:21:49;;;;;;;55.00;24.20;;;;;;;-0.03;52.13;96391.25;5019898;28;20271;-72
2022/03/21 06:24:18;;;;;;;51.97;25.70;;;;;;;-0.07;52.47;96385.53;5022875;28;20233;-72
2022/03/21 06:26:46;;;;;;;64.37;24.87;;;;;;;-0.08;52.69;96383.88;5020890;28;20572;-71
2022/03/21 06:29:13;;;;;;;54.83;25.27;;;;;;;0.03;52.74;96388.22;5020863;28;20220;-75
2022/03/21 06:31:43;;;;;;;57.00;25.60;;;;;;;0.15;52.50;96389.06;5021111;28;20311;-73
2022/03/21 06:34:12;;;;;;;56.20;26.50;;;;;;;0.29;51.86;96387.13;5023945;28;20249;-73
2022/03/21 06:36:40;;;;;;;59.87;25.23;;;;;;;0.38;51.37;96389.03;5020929;28;20591;-75
2022/03/21 06:39:10;;;;;;;50.43;23.97;;;;;;;0.45;51.38;96384.28;5020627;28;20213;-74
2022/03/21 06:41:39;;;;;;;51.40;24.57;;;;;;;0.54;50.32;96388.72;5018976;28;20192;-75
2022/03/21 06:44:08;;;;;;;56.20;24.03;;;;;;;0.59;50.29;96386.63;5019427;28;20666;-81
2022/03/21 06:46:36;;;;;;;48.43;22.90;;;;;;;0.71;50.09;96384.91;5018958;28;20203;-74
2022/03/21 06:49:05;;;;;;;43.10;22.03;;;;;;;0.82;49.15;96383.16;5021394;28;20229;-73
2022/03/21 06:51:34;;;;;;;32.20;17.37;;;;;;;0.91;48.84;96382.47;5020117;28;20346;-81
2022/03/21 06:54:02;;;;;;;40.10;18.30;;;;;;;1.03;47.75;96380.72;5014249;28;20238;-72
2022/03/21 06:56:31;;;;;;;35.33;16.33;;;;;;;1.21;45.26;96386.19;4962814;28;1653370;-72
2022/03/21 06:58:59;;;;;;;30.30;15.47;;;;;;;1.30;45.44;96388.06;5019618;28;20658;-74
2022/03/21 07:01:26;;;;;;;30.20;15.60;;;;;;;1.38;45.31;96396.78;5023054;28;20233;-73
2022/03/21 07:03:55;;;;;;;25.33;13.37;;;;;;;1.49;44.35;96390.81;5021400;28;20199;-73
2022/03/21 07:06:23;;;;;;;28.47;14.17;;;;;;;1.58;43.66;96383.22;5020705;28;20200;-72
2022/03/21 07:08:51;;;;;;;26.50;13.37;;;;;;;1.68;43.49;96383.28;5023280;28;20674;-73
2022/03/21 07:11:21;;;;;;;37.87;14.70;;;;;;;1.82;42.64;96383.03;5018987;28;20209;-75
2022/03/21 07:13:51;;;;;;;28.93;13.67;;;;;;;1.90;42.91;96380.69;5027286;28;20193;-74
2022/03/21 07:16:19;;;;;;;29.63;14.17;;;;;;;2.03;42.71;96376.19;5019653;28;20211;-74
2022/03/21 07:18:48;;;;;;;27.53;14.63;;;;;;;2.04;42.12;96349.63;5020750;28;20584;-74
2022/03/21 07:21:16;;;;;;;32.93;15.27;;;;;;;2.24;41.42;96371.91;5020389;28;20199;-74
2022/03/21 07:23:44;;;;;;;34.33;16.33;;;;;;;2.32;41.99;96373.03;5020893;28;20245;-74
2022/03/21 07:26:12;;;;;;;39.43;16.57;;;;;;;2.44;41.89;96370.28;5021946;28;20563;-74
2022/03/21 07:28:41;;;;;;;30.83;15.97;;;;;;;2.50;42.01;96366.41;5020655;28;20671;-73
2022/03/21 07:31:11;;;;;;;35.00;15.43;;;;;;;2.61;40.91;96366.31;5020537;28;20206;-72
2022/03/21 07:33:40;;;;;;;30.43;15.33;;;;;;;2.65;40.15;96375.41;5025836;28;20209;-75
2022/03/21 07:36:07;;;;;;;27.77;13.60;;;;;;;2.68;39.90;96370.84;5024100;28;20195;-80
2022/03/21 07:38:35;;;;;;;31.67;13.60;;;;;;;2.67;40.20;96355.56;5031433;28;20198;-80
2022/03/21 07:41:04;;;;;;;36.43;13.00;;;;;;;2.83;39.88;96355.88;5032046;28;20202;-80
2022/03/21 07:43:31;;;;;;;24.33;14.13;;;;;;;2.98;40.15;96357.19;5029710;28;20198;-80
2022/03/21 07:48:46;;;;;;;18.17;10.17;;;;;;;3.10;39.47;96356.16;5018271;28;20840;-84
2022/03/21 07:51:14;;;;;;;19.30;11.60;;;;;;;3.15;39.61;96343.72;5021479;28;20290;-83
2022/03/21 07:53:41;;;;;;;24.43;12.83;;;;;;;3.26;38.79;96351.31;5021253;28;20281;-83
2022/03/21 07:56:10;;;;;;;19.60;11.90;;;;;;;3.29;39.03;96353.63;5020216;28;20227;-83
2022/03/21 07:58:39;;;;;;;23.80;12.30;;;;;;;3.38;38.67;96346.88;5013072;28;20204;-83
2022/03/21 08:01:07;;;;;;;20.63;11.73;;;;;;;3.55;38.47;96335.97;5025400;28;20578;-83
2022/03/21 08:03:34;;;;;;;21.53;12.53;;;;;;;3.58;39.70;96337.47;5020476;28;20265;-83
2022/03/21 08:06:04;;;;;;;20.73;12.07;;;;;;;3.68;38.92;96344.25;5024255;28;20230;-75
2022/03/21 08:08:32;;;;;;;23.43;12.50;;;;;;;3.67;38.93;96334.91;5012169;28;20229;-76
2022/03/21 08:10:59;;;;;;;26.00;11.93;;;;;;;3.65;38.48;96334.22;5014924;28;20195;-75
2022/03/21 08:13:27;;;;;;;24.53;12.77;;;;;;;3.69;38.36;96332.22;5020445;28;20222;-76
2022/03/21 08:15:54;;;;;;;20.23;12.40;;;;;;;3.79;38.81;96320.16;5021953;28;20645;-76
2022/03/21 08:18:23;;;;;;;24.87;12.73;;;;;;;3.95;38.45;96328.94;5019782;28;20199;-77
2022/03/21 08:20:51;;;;;;;23.10;12.57;;;;;;;3.92;37.88;96313.81;5023081;28;20199;-76
2022/03/21 08:23:19;;;;;;;21.40;12.47;;;;;;;4.08;38.12;96326.13;5018346;28;20625;-76
2022/03/21 08:25:46;;;;;;;23.77;12.00;;;;;;;4.15;38.40;96339.25;5027241;28;20207;-76
2022/03/21 08:28:15;;;;;;;22.07;12.50;;;;;;;4.16;37.65;96328.00;5028338;28;20201;-76
2022/03/21 08:30:43;;;;;;;28.17;12.53;;;;;;;4.30;37.64;96319.88;5025076;28;20206;-76
2022/03/21 08:33:12;;;;;;;22.07;12.37;;;;;;;4.36;37.58;96334.75;5025844;28;20255;-75
2022/03/21 08:35:41;;;;;;;20.53;11.40;;;;;;;4.50;37.48;96339.47;5023487;28;20199;-76
2022/03/21 08:38:11;;;;;;;23.30;11.73;;;;;;;4.61;37.39;96336.75;5023341;28;20226;-76
2022/03/21 08:40:41;;;;;;;29.57;12.40;;;;;;;4.64;37.52;96333.06;5023246;28;20195;-76
2022/03/21 08:43:10;;;;;;;22.83;12.97;;;;;;;4.74;38.15;96326.13;5030565;28;20203;-76
2022/03/21 08:45:40;;;;;;;30.30;13.13;;;;;;;4.83;36.88;96320.13;5020453;28;20203;-77
2022/03/21 08:48:08;;;;;;;24.33;13.57;;;;;;;4.90;37.34;96327.16;5024601;28;20192;-77
2022/03/21 08:50:37;;;;;;;22.93;13.53;;;;;;;4.96;37.02;96323.19;5023172;28;20376;-78
2022/03/21 08:53:05;;;;;;;21.33;13.03;;;;;;;5.12;37.34;96313.09;5027615;28;20312;-77
2022/03/21 08:55:33;;;;;;;26.27;11.70;;;;;;;5.23;35.81;96312.88;5021258;28;20735;-76
2022/03/21 08:58:02;;;;;;;19.77;10.20;;;;;;;5.14;35.97;96301.66;5016434;28;20228;-77
2022/03/21 09:00:30;;;;;;;19.20;10.37;;;;;;;5.39;35.93;96310.50;5020511;28;20286;-77
2022/03/21 09:02:58;;;;;;;21.00;10.33;;;;;;;5.51;36.12;96301.59;5020231;28;20296;-77
2022/03/21 09:05:25;;;;;;;22.73;10.93;;;;;;;5.74;35.38;96315.69;5019129;28;20200;-77
2022/03/21 09:07:53;;;;;;;18.40;11.03;;;;;;;5.93;35.50;96308.78;5020120;28;20233;-77
2022/03/21 09:10:21;;;;;;;21.13;10.87;;;;;;;6.29;34.71;96310.38;5019656;28;20202;-77
2022/03/21 09:12:48;;;;;;;22.83;11.43;;;;;;;6.42;35.06;96308.19;5022488;28;20606;-77
2022/03/21 09:15:19;;;;;;;23.90;10.87;;;;;;;6.55;34.76;96312.97;5016901;28;20208;-76
2022/03/21 09:17:47;;;;;;;21.27;10.80;;;;;;;6.84;33.71;96318.63;5021262;28;20264;-76
2022/03/21 09:20:14;;;;;;;21.27;10.40;;;;;;;7.00;34.08;96326.47;5010760;28;20294;-77
2022/03/21 09:22:42;;;;;;;20.40;10.73;;;;;;;7.10;33.65;96310.84;5022535;28;20587;-78
2022/03/21 09:25:10;;;;;;;20.07;11.37;;;;;;;7.43;33.47;96317.75;5019651;28;20293;-78
2022/03/21 09:27:42;;;;;;;26.80;10.97;;;;;;;7.46;32.70;96317.44;5021349;28;20741;-76
2022/03/21 09:30:13;;;;;;;19.40;10.77;;;;;;;7.50;32.76;96318.75;5025502;28;20194;-77
2022/03/21 09:32:44;;;;;;;20.07;10.07;;;;;;;7.52;32.21;96318.56;5018684;28;20614;-77
2022/03/21 09:35:13;;;;;;;27.70;10.37;;;;;;;7.67;32.49;96319.59;5022104;28;20203;-77
2022/03/21 09:37:41;;;;;;;19.13;10.37;;;;;;;7.78;32.05;96314.09;5020815;28;20252;-77
2022/03/21 09:40:11;;;;;;;19.40;10.67;;;;;;;7.83;31.93;96317.03;5023574;28;20207;-77
2022/03/21 09:42:40;;;;;;;19.23;10.23;;;;;;;7.83;31.38;96317.84;5025922;28;20194;-77
2022/03/21 09:45:09;;;;;;;17.90;10.57;;;;;;;7.97;31.73;96301.66;5025640;28;20738;-77
2022/03/21 09:50:35;;;;;;;19.07;10.17;;;;;;;8.14;31.13;96312.06;5023870;28;20214;-77
2022/03/21 09:53:04;;;;;;;22.17;11.43;;;;;;;8.24;31.09;96315.28;5023968;28;20218;-77
2022/03/21 09:55:32;;;;;;;21.77;11.23;;;;;;;8.03;30.73;96310.56;5028302;28;20293;-77
2022/03/21 09:57:59;;;;;;;19.33;10.20;;;;;;;7.89;31.25;96311.22;5020925;28;20219;-76
2022/03/21 10:00:28;;;;;;;18.53;10.43;;;;;;;8.02;30.81;96302.00;5023414;28;20217;-77
2022/03/21 10:02:57;;;;;;;21.47;11.10;;;;;;;8.25;30.95;96311.72;5022571;28;20230;-75
2022/03/21 10:05:35;;;;;;;19.77;10.40;;;;;;;8.48;30.91;96300.53;5027663;28;20199;-75
2022/03/21 10:08:21;;;;;;;18.53;10.70;;;;;;;8.94;31.02;96306.78;5023427;28;20271;-76
2022/03/21 10:10:55;;;;;;;20.40;10.73;;;;;;;8.73;29.90;96311.69;5023946;28;20686;-75
2022/03/21 10:13:24;;;;;;;17.60;11.27;;;;;;;8.83;30.54;96309.72;5023328;28;20238;-76
2022/03/21 10:16:08;;;;;;;16.83;10.83;;;;;;;8.66;30.02;96304.75;5020182;28;20204;-75
2022/03/21 10:18:37;;;;;;;16.70;10.50;;;;;;;8.92;30.26;96305.31;5022416;28;20203;-76
2022/03/21 10:21:15;;;;;;;21.40;10.50;;;;;;;9.27;29.97;96291.91;5021282;28;20315;-75
2022/03/21 10:23:44;;;;;;;16.30;9.90;;;;;;;9.42;29.29;96295.41;5026043;28;20198;-75
2022/03/21 10:26:33;;;;;;;14.97;9.80;;;;;;;9.33;29.57;96293.00;5028096;28;20203;-76
2022/03/21 10:29:04;;;;;;;22.13;10.30;;;;;;;9.42;29.11;96295.41;5016781;28;20248;-76
2022/03/21 10:31:40;;;;;;;13.53;9.93;;;;;;;9.40;29.36;96299.16;5021055;28;20202;-77
2022/03/21 10:34:10;;;;;;;18.27;9.63;;;;;;;9.72;29.80;96286.00;5026828;28;20241;-77
2022/03/21 10:36:59;;;;;;;16.33;10.07;;;;;;;10.09;28.05;96290.44;5019817;28;20693;-76
2022/03/21 10:39:27;;;;;;;18.00;10.87;;;;;;;10.05;28.42;96279.56;5023473;28;20635;-79
2022/03/21 10:41:58;;;;;;;18.07;10.33;;;;;;;10.25;27.66;96290.31;5022180;28;20249;-79
2022/03/21 10:44:27;;;;;;;20.27;11.23;;;;;;;10.64;28.31;96288.34;5020766;28;20199;-76
2022/03/21 10:46:55;;;;;;;19.20;11.03;;;;;;;10.48;27.58;96280.69;5020129;28;20570;-77
2022/03/21 10:49:33;;;;;;;20.17;10.83;;;;;;;10.85;27.40;96282.44;5021929;28;20198;-76
2022/03/21 10:52:06;;;;;;;22.00;10.80;;;;;;;10.99;27.02;96278.25;5020183;28;20199;-76
2022/03/21 10:54:43;;;;;;;18.10;9.77;;;;;;;10.76;27.27;96273.13;5021218;28;20222;-78
2022/03/21 10:57:30;;;;;;;20.50;10.70;;;;;;;10.57;26.77;96269.25;5020352;28;20227;-84
2022/03/21 11:00:15;;;;;;;17.20;10.83;;;;;;;10.24;27.75;96263.53;5022208;28;20720;-72
2022/03/21 11:02:52;;;;;;;18.30;10.73;;;;;;;10.33;28.16;96266.88;5017147;28;20275;-74
2022/03/21 11:05:20;;;;;;;18.53;11.10;;;;;;;10.61;26.79;96267.09;5019451;28;20203;-74
2022/03/21 11:07:51;;;;;;;18.97;10.97;;;;;;;10.75;26.80;96259.31;5022324;28;20249;-72
2022/03/21 11:10:20;;;;;;;18.87;10.67;;;;;;;11.38;27.18;96261.31;5021998;28;20192;-82
2022/03/21 11:12:48;;;;;;;20.90;10.50;;;;;;;11.39;26.56;96247.31;5022543;28;20211;-78
2022/03/21 11:15:17;;;;;;;17.70;10.57;;;;;;;11.47;26.41;96251.59;5024475;28;20260;-78
2022/03/21 11:17:47;;;;;;;17.33;10.23;;;;;;;11.35;25.96;96246.06;5019918;28;20366;-76
2022/03/21 11:20:15;;;;;;;16.63;11.03;;;;;;;11.79;26.11;96242.53;5022990;28;21821;-77
2022/03/21 11:22:45;;;;;;;20.33;11.03;;;;;;;11.97;25.87;96245.53;5021670;28;20746;-78
2022/03/21 11:25:17;;;;;;;15.10;9.83;;;;;;;11.83;25.00;96246.41;5021339;28;20198;-75
2022/03/21 11:28:30;;;;;;;18.60;10.13;;;;;;;11.57;25.67;96241.66;5024324;28;20203;-76
2022/03/21 11:31:11;;;;;;;18.33;10.23;;;;;;;11.76;25.94;96235.09;5024486;28;20205;-75
2022/03/21 11:33:43;;;;;;;17.63;10.73;;;;;;;12.23;25.78;96234.50;5022949;28;20296;-75
2022/03/21 11:36:13;;;;;;;16.50;10.43;;;;;;;12.91;24.90;96237.16;5022248;28;20191;-76
2022/03/21 11:38:45;;;;;;;17.07;9.87;;;;;;;13.10;24.14;96220.03;5020480;28;20245;-76
2022/03/21 11:41:18;;;;;;;18.03;10.20;;;;;;;13.36;24.09;96222.72;5019925;28;20204;-75
2022/03/21 11:43:47;;;;;;;18.87;9.73;;;;;;;13.23;23.96;96207.00;5018558;28;20316;-76
2022/03/21 11:46:37;;;;;;;16.10;9.43;;;;;;;13.99;23.35;96220.66;5020314;28;20976;-77
2022/03/21 11:49:06;;;;;;;16.13;10.23;;;;;;;14.25;23.44;96212.00;5019495;28;20626;-77
2022/03/21 11:51:41;;;;;;;18.37;9.93;;;;;;;14.23;23.54;96195.72;5015683;28;20659;-77
2022/03/21 11:54:26;;;;;;;15.10;10.53;;;;;;;13.98;23.31;96196.31;5009734;28;20214;-77